sensor_id;sensor_type;location;lat;lon;timestamp;temperature;humidity
5578;DHT22;2811;51.900;10.734;2023-07-09T00:01:42;19.50;99.90
5578;DHT22;2811;51.900;10.734;2023-07-09T00:04:09;19.30;99.90
5578;DHT22;2811;51.900;10.734;2023-07-09T00:06:37;19.30;99.90
5578;DHT22;2811;51.900;10.734;2023-07-09T00:09:06;19.30;99.90
5578;DHT22;2811;51.900;10.734;2023-07-09T00:11:33;19.20;99.90
5578;DHT22;2811;51.900;10.734;2023-07-09T00:13:59;19.30;99.90
5578;DHT22;2811;51.900;10.734;2023-07-09T00:16:26;19.40;99.90
5578;DHT22;2811;51.900;10.734;2023-07-09T00:18:53;19.40;99.90
5578;DHT22;2811;51.900;10.734;2023-07-09T00:21:20;19.40;99.90
5578;DHT22;2811;51.900;10.734;2023-07-09T00:23:49;19.30;99.90
5578;DHT22;2811;51.900;10.734;2023-07-09T00:26:17;19.40;99.90
5578;DHT22;2811;51.900;10.734;2023-07-09T00:28:48;19.50;99.90
5578;DHT22;2811;51.900;10.734;2023-07-09T00:31:16;19.40;99.90
5578;DHT22;2811;51.900;10.734;2023-07-09T00:33:43;19.30;99.90
5578;DHT22;2811;51.900;10.734;2023-07-09T00:36:14;19.20;99.90
5578;DHT22;2811;51.900;10.734;2023-07-09T00:38:41;19.20;99.90
5578;DHT22;2811;51.900;10.734;2023-07-09T00:41:16;19.00;99.90
5578;DHT22;2811;51.900;10.734;2023-07-09T00:43:45;19.00;99.90
5578;DHT22;2811;51.900;10.734;2023-07-09T00:49:27;18.80;99.90
5578;DHT22;2811;51.900;10.734;2023-07-09T00:51:56;18.90;99.90
5578;DHT22;2811;51.900;10.734;2023-07-09T00:54:28;18.90;99.90
5578;DHT22;2811;51.900;10.734;2023-07-09T00:57:01;18.50;99.90
5578;DHT22;2811;51.900;10.734;2023-07-09T00:59:32;18.50;99.90
5578;DHT22;2811;51.900;10.734;2023-07-09T01:01:59;18.70;99.90
5578;DHT22;2811;51.900;10.734;2023-07-09T01:04:27;18.70;99.90
5578;DHT22;2811;51.900;10.734;2023-07-09T01:06:56;18.60;99.90
5578;DHT22;2811;51.900;10.734;2023-07-09T01:09:24;18.50;99.90
5578;DHT22;2811;51.900;10.734;2023-07-09T01:11:51;18.40;99.90
5578;DHT22;2811;51.900;10.734;2023-07-09T01:14:24;18.50;99.90
5578;DHT22;2811;51.900;10.734;2023-07-09T01:16:55;18.60;99.90
5578;DHT22;2811;51.900;10.734;2023-07-09T01:19:25;18.60;99.90
5578;DHT22;2811;51.900;10.734;2023-07-09T01:21:55;18.70;99.90
5578;DHT22;2811;51.900;10.734;2023-07-09T01:24:47;18.70;99.90
5578;DHT22;2811;51.900;10.734;2023-07-09T01:27:15;18.70;99.90
5578;DHT22;2811;51.900;10.734;2023-07-09T01:29:44;18.60;99.90
5578;DHT22;2811;51.900;10.734;2023-07-09T01:32:14;18.60;99.90
5578;DHT22;2811;51.900;10.734;2023-07-09T01:34:40;18.60;99.90
5578;DHT22;2811;51.900;10.734;2023-07-09T01:37:09;18.60;99.90
5578;DHT22;2811;51.900;10.734;2023-07-09T01:39:36;18.60;99.90
5578;DHT22;2811;51.900;10.734;2023-07-09T01:42:06;18.60;99.90
5578;DHT22;2811;51.900;10.734;2023-07-09T01:44:34;18.50;99.90
5578;DHT22;2811;51.900;10.734;2023-07-09T01:47:01;18.40;99.90
5578;DHT22;2811;51.900;10.734;2023-07-09T01:49:29;18.50;99.90
5578;DHT22;2811;51.900;10.734;2023-07-09T01:51:58;18.50;99.90
5578;DHT22;2811;51.900;10.734;2023-07-09T01:54:28;18.20;99.90
5578;DHT22;2811;51.900;10.734;2023-07-09T01:56:54;18.20;99.90
5578;DHT22;2811;51.900;10.734;2023-07-09T01:59:26;18.40;99.90
5578;DHT22;2811;51.900;10.734;2023-07-09T02:01:53;17.80;99.90
5578;DHT22;2811;51.900;10.734;2023-07-09T02:04:23;17.50;99.90
5578;DHT22;2811;51.900;10.734;2023-07-09T02:06:52;17.50;99.90
5578;DHT22;2811;51.900;10.734;2023-07-09T02:09:19;17.70;99.90
5578;DHT22;2811;51.900;10.734;2023-07-09T02:11:47;17.30;99.90
5578;DHT22;2811;51.900;10.734;2023-07-09T02:14:13;17.30;99.90
5578;DHT22;2811;51.900;10.734;2023-07-09T02:16:40;17.40;99.90
5578;DHT22;2811;51.900;10.734;2023-07-09T02:19:07;17.60;99.90
5578;DHT22;2811;51.900;10.734;2023-07-09T02:21:33;17.80;99.90
5578;DHT22;2811;51.900;10.734;2023-07-09T02:24:00;18.00;99.90
5578;DHT22;2811;51.900;10.734;2023-07-09T02:26:27;17.90;99.90
5578;DHT22;2811;51.900;10.734;2023-07-09T02:28:55;17.80;99.90
5578;DHT22;2811;51.900;10.734;2023-07-09T02:31:22;17.70;99.90
5578;DHT22;2811;51.900;10.734;2023-07-09T02:33:48;17.80;99.90
5578;DHT22;2811;51.900;10.734;2023-07-09T02:36:16;18.00;99.90
5578;DHT22;2811;51.900;10.734;2023-07-09T02:38:42;18.10;99.90
5578;DHT22;2811;51.900;10.734;2023-07-09T02:41:09;18.10;99.90
5578;DHT22;2811;51.900;10.734;2023-07-09T02:43:36;18.00;99.90
5578;DHT22;2811;51.900;10.734;2023-07-09T02:46:04;18.00;99.90
5578;DHT22;2811;51.900;10.734;2023-07-09T02:48:30;17.80;99.90
5578;DHT22;2811;51.900;10.734;2023-07-09T02:50:57;18.00;99.90
5578;DHT22;2811;51.900;10.734;2023-07-09T02:53:24;18.10;99.90
5578;DHT22;2811;51.900;10.734;2023-07-09T02:55:50;17.90;99.90
5578;DHT22;2811;51.900;10.734;2023-07-09T02:58:17;17.80;99.90
5578;DHT22;2811;51.900;10.734;2023-07-09T03:00:44;17.80;99.90
5578;DHT22;2811;51.900;10.734;2023-07-09T03:03:18;17.80;99.90
5578;DHT22;2811;51.900;10.734;2023-07-09T03:05:45;17.60;99.90
5578;DHT22;2811;51.900;10.734;2023-07-09T03:08:12;17.70;99.90
5578;DHT22;2811;51.900;10.734;2023-07-09T03:10:38;17.60;99.90
5578;DHT22;2811;51.900;10.734;2023-07-09T03:13:05;17.60;99.90
5578;DHT22;2811;51.900;10.734;2023-07-09T03:15:32;17.80;99.90
5578;DHT22;2811;51.900;10.734;2023-07-09T03:17:59;17.70;99.90
5578;DHT22;2811;51.900;10.734;2023-07-09T03:20:27;17.50;99.90
5578;DHT22;2811;51.900;10.734;2023-07-09T03:22:53;17.60;99.90
5578;DHT22;2811;51.900;10.734;2023-07-09T03:25:20;17.80;99.90
5578;DHT22;2811;51.900;10.734;2023-07-09T03:27:47;17.80;99.90
5578;DHT22;2811;51.900;10.734;2023-07-09T03:30:14;17.90;99.90
5578;DHT22;2811;51.900;10.734;2023-07-09T03:32:42;17.90;99.90
5578;DHT22;2811;51.900;10.734;2023-07-09T03:35:09;17.90;99.90
5578;DHT22;2811;51.900;10.734;2023-07-09T03:37:37;17.90;99.90
5578;DHT22;2811;51.900;10.734;2023-07-09T03:40:09;18.00;99.90
5578;DHT22;2811;51.900;10.734;2023-07-09T03:42:36;18.00;99.90
5578;DHT22;2811;51.900;10.734;2023-07-09T03:45:03;18.10;99.90
5578;DHT22;2811;51.900;10.734;2023-07-09T03:47:30;18.00;99.90
5578;DHT22;2811;51.900;10.734;2023-07-09T03:49:56;18.00;99.90
5578;DHT22;2811;51.900;10.734;2023-07-09T03:52:23;18.30;99.90
5578;DHT22;2811;51.900;10.734;2023-07-09T03:54:51;17.80;99.90
5578;DHT22;2811;51.900;10.734;2023-07-09T03:57:17;17.80;99.90
5578;DHT22;2811;51.900;10.734;2023-07-09T03:59:44;17.80;99.90
5578;DHT22;2811;51.900;10.734;2023-07-09T04:02:11;17.90;99.90
5578;DHT22;2811;51.900;10.734;2023-07-09T04:04:37;17.80;99.90
5578;DHT22;2811;51.900;10.734;2023-07-09T04:07:04;17.80;99.90
5578;DHT22;2811;51.900;10.734;2023-07-09T04:09:31;17.90;99.90
5578;DHT22;2811;51.900;10.734;2023-07-09T04:11:59;18.00;99.90
5578;DHT22;2811;51.900;10.734;2023-07-09T04:14:26;17.90;99.90
5578;DHT22;2811;51.900;10.734;2023-07-09T04:16:53;18.20;99.90
5578;DHT22;2811;51.900;10.734;2023-07-09T04:19:20;18.00;99.90
5578;DHT22;2811;51.900;10.734;2023-07-09T04:21:46;18.00;99.90
5578;DHT22;2811;51.900;10.734;2023-07-09T04:24:14;18.30;99.90
5578;DHT22;2811;51.900;10.734;2023-07-09T04:26:41;18.20;99.90
5578;DHT22;2811;51.900;10.734;2023-07-09T04:29:09;18.20;99.90
5578;DHT22;2811;51.900;10.734;2023-07-09T04:31:36;18.40;99.90
5578;DHT22;2811;51.900;10.734;2023-07-09T04:34:03;18.50;99.90
5578;DHT22;2811;51.900;10.734;2023-07-09T04:36:30;18.60;99.90
5578;DHT22;2811;51.900;10.734;2023-07-09T04:38:56;18.90;99.90
5578;DHT22;2811;51.900;10.734;2023-07-09T04:41:23;19.30;99.90
5578;DHT22;2811;51.900;10.734;2023-07-09T04:43:50;20.20;99.90
5578;DHT22;2811;51.900;10.734;2023-07-09T04:46:18;20.50;99.90
5578;DHT22;2811;51.900;10.734;2023-07-09T04:48:45;21.10;99.90
5578;DHT22;2811;51.900;10.734;2023-07-09T04:51:11;21.40;99.90
5578;DHT22;2811;51.900;10.734;2023-07-09T04:53:38;22.00;99.90
5578;DHT22;2811;51.900;10.734;2023-07-09T04:56:05;22.20;99.90
5578;DHT22;2811;51.900;10.734;2023-07-09T04:58:31;22.80;99.90
5578;DHT22;2811;51.900;10.734;2023-07-09T05:00:59;22.90;99.90
5578;DHT22;2811;51.900;10.734;2023-07-09T05:03:27;23.40;99.90
5578;DHT22;2811;51.900;10.734;2023-07-09T05:05:54;23.40;99.90
5578;DHT22;2811;51.900;10.734;2023-07-09T05:08:20;23.30;99.90
5578;DHT22;2811;51.900;10.734;2023-07-09T05:10:50;23.50;99.90
5578;DHT22;2811;51.900;10.734;2023-07-09T05:13:18;23.30;99.90
5578;DHT22;2811;51.900;10.734;2023-07-09T05:15:47;23.70;99.90
5578;DHT22;2811;51.900;10.734;2023-07-09T05:18:15;24.10;99.90
5578;DHT22;2811;51.900;10.734;2023-07-09T05:20:43;24.40;99.90
5578;DHT22;2811;51.900;10.734;2023-07-09T05:23:10;24.50;99.90
5578;DHT22;2811;51.900;10.734;2023-07-09T05:25:37;24.60;99.30
5578;DHT22;2811;51.900;10.734;2023-07-09T05:28:04;24.30;98.90
5578;DHT22;2811;51.900;10.734;2023-07-09T05:30:32;24.30;99.30
5578;DHT22;2811;51.900;10.734;2023-07-09T05:32:58;24.40;99.00
5578;DHT22;2811;51.900;10.734;2023-07-09T05:35:26;23.90;99.10
5578;DHT22;2811;51.900;10.734;2023-07-09T05:37:55;23.70;99.90
5578;DHT22;2811;51.900;10.734;2023-07-09T05:40:22;23.80;99.90
5578;DHT22;2811;51.900;10.734;2023-07-09T05:42:49;23.80;99.90
5578;DHT22;2811;51.900;10.734;2023-07-09T05:45:16;24.10;99.90
5578;DHT22;2811;51.900;10.734;2023-07-09T05:47:42;24.10;99.90
5578;DHT22;2811;51.900;10.734;2023-07-09T05:50:09;23.70;99.90
5578;DHT22;2811;51.900;10.734;2023-07-09T05:52:36;23.60;99.90
5578;DHT22;2811;51.900;10.734;2023-07-09T05:55:05;23.80;99.90
5578;DHT22;2811;51.900;10.734;2023-07-09T05:57:32;23.70;99.90
5578;DHT22;2811;51.900;10.734;2023-07-09T05:59:59;23.50;99.90
5578;DHT22;2811;51.900;10.734;2023-07-09T06:02:25;23.40;99.90
5578;DHT22;2811;51.900;10.734;2023-07-09T06:04:52;23.40;99.90
5578;DHT22;2811;51.900;10.734;2023-07-09T06:07:18;23.60;99.90
5578;DHT22;2811;51.900;10.734;2023-07-09T06:09:45;23.60;99.90
5578;DHT22;2811;51.900;10.734;2023-07-09T06:12:14;23.70;99.90
5578;DHT22;2811;51.900;10.734;2023-07-09T06:14:41;23.50;99.90
5578;DHT22;2811;51.900;10.734;2023-07-09T06:17:07;23.60;99.90
5578;DHT22;2811;51.900;10.734;2023-07-09T06:19:34;24.00;99.90
5578;DHT22;2811;51.900;10.734;2023-07-09T06:22:01;24.30;99.90
5578;DHT22;2811;51.900;10.734;2023-07-09T06:24:27;24.60;99.90
5578;DHT22;2811;51.900;10.734;2023-07-09T06:26:54;24.80;99.90
5578;DHT22;2811;51.900;10.734;2023-07-09T06:29:23;24.90;99.90
5578;DHT22;2811;51.900;10.734;2023-07-09T06:31:50;25.20;99.90
5578;DHT22;2811;51.900;10.734;2023-07-09T06:34:17;25.70;98.80
5578;DHT22;2811;51.900;10.734;2023-07-09T06:36:44;25.50;98.60
5578;DHT22;2811;51.900;10.734;2023-07-09T06:39:11;25.20;98.70
5578;DHT22;2811;51.900;10.734;2023-07-09T06:41:38;25.10;98.60
5578;DHT22;2811;51.900;10.734;2023-07-09T06:44:05;25.40;98.40
5578;DHT22;2811;51.900;10.734;2023-07-09T06:46:33;25.60;98.40
5578;DHT22;2811;51.900;10.734;2023-07-09T06:49:00;25.60;98.30
5578;DHT22;2811;51.900;10.734;2023-07-09T06:51:27;25.80;98.60
5578;DHT22;2811;51.900;10.734;2023-07-09T06:53:53;26.10;98.50
5578;DHT22;2811;51.900;10.734;2023-07-09T06:56:21;26.00;98.10
5578;DHT22;2811;51.900;10.734;2023-07-09T06:58:48;26.20;98.10
5578;DHT22;2811;51.900;10.734;2023-07-09T07:01:15;26.50;97.20
5578;DHT22;2811;51.900;10.734;2023-07-09T07:03:43;26.60;97.80
5578;DHT22;2811;51.900;10.734;2023-07-09T07:06:10;26.50;98.30
5578;DHT22;2811;51.900;10.734;2023-07-09T07:08:36;26.80;99.10
5578;DHT22;2811;51.900;10.734;2023-07-09T07:11:04;26.80;98.90
5578;DHT22;2811;51.900;10.734;2023-07-09T07:13:34;26.90;99.30
5578;DHT22;2811;51.900;10.734;2023-07-09T07:16:02;27.10;98.80
5578;DHT22;2811;51.900;10.734;2023-07-09T07:18:29;27.10;98.80
5578;DHT22;2811;51.900;10.734;2023-07-09T07:20:57;27.10;98.70
5578;DHT22;2811;51.900;10.734;2023-07-09T07:23:23;27.20;99.00
5578;DHT22;2811;51.900;10.734;2023-07-09T07:25:50;26.70;99.00
5578;DHT22;2811;51.900;10.734;2023-07-09T07:28:17;26.90;99.50
5578;DHT22;2811;51.900;10.734;2023-07-09T07:30:44;27.10;99.60
5578;DHT22;2811;51.900;10.734;2023-07-09T07:33:13;27.10;99.10
5578;DHT22;2811;51.900;10.734;2023-07-09T07:35:40;27.40;99.00
5578;DHT22;2811;51.900;10.734;2023-07-09T07:38:08;27.60;98.00
5578;DHT22;2811;51.900;10.734;2023-07-09T07:40:35;27.80;97.80
5578;DHT22;2811;51.900;10.734;2023-07-09T07:43:01;28.10;97.10
5578;DHT22;2811;51.900;10.734;2023-07-09T07:45:28;27.90;97.10
5578;DHT22;2811;51.900;10.734;2023-07-09T07:47:54;27.70;97.80
5578;DHT22;2811;51.900;10.734;2023-07-09T07:50:21;27.90;96.70
5578;DHT22;2811;51.900;10.734;2023-07-09T07:52:48;28.20;96.50
5578;DHT22;2811;51.900;10.734;2023-07-09T07:55:16;28.00;96.30
5578;DHT22;2811;51.900;10.734;2023-07-09T07:57:43;28.40;96.20
5578;DHT22;2811;51.900;10.734;2023-07-09T08:00:11;28.40;95.80
5578;DHT22;2811;51.900;10.734;2023-07-09T08:02:38;28.60;95.30
5578;DHT22;2811;51.900;10.734;2023-07-09T08:05:05;28.70;94.80
5578;DHT22;2811;51.900;10.734;2023-07-09T08:07:32;28.70;94.20
5578;DHT22;2811;51.900;10.734;2023-07-09T08:09:59;28.70;93.60
5578;DHT22;2811;51.900;10.734;2023-07-09T08:12:27;28.60;93.70
5578;DHT22;2811;51.900;10.734;2023-07-09T08:14:53;28.70;93.60
5578;DHT22;2811;51.900;10.734;2023-07-09T08:17:20;29.00;93.30
5578;DHT22;2811;51.900;10.734;2023-07-09T08:19:49;29.20;93.70
5578;DHT22;2811;51.900;10.734;2023-07-09T08:22:16;29.10;93.10
5578;DHT22;2811;51.900;10.734;2023-07-09T08:24:46;29.30;93.70
5578;DHT22;2811;51.900;10.734;2023-07-09T08:27:12;29.70;93.20
5578;DHT22;2811;51.900;10.734;2023-07-09T08:29:40;30.00;93.00
5578;DHT22;2811;51.900;10.734;2023-07-09T08:32:08;29.90;93.30
5578;DHT22;2811;51.900;10.734;2023-07-09T08:34:36;29.60;91.80
5578;DHT22;2811;51.900;10.734;2023-07-09T08:37:04;29.50;91.70
5578;DHT22;2811;51.900;10.734;2023-07-09T08:39:31;29.60;92.00
5578;DHT22;2811;51.900;10.734;2023-07-09T08:42:00;29.80;92.10
5578;DHT22;2811;51.900;10.734;2023-07-09T08:44:43;29.90;92.40
5578;DHT22;2811;51.900;10.734;2023-07-09T08:47:21;30.30;92.90
5578;DHT22;2811;51.900;10.734;2023-07-09T08:49:54;30.30;93.20
5578;DHT22;2811;51.900;10.734;2023-07-09T08:52:28;30.50;93.40
5578;DHT22;2811;51.900;10.734;2023-07-09T08:54:57;30.60;93.20
5578;DHT22;2811;51.900;10.734;2023-07-09T08:57:27;30.80;92.30
5578;DHT22;2811;51.900;10.734;2023-07-09T08:59:59;30.80;92.50
5578;DHT22;2811;51.900;10.734;2023-07-09T09:02:31;30.70;93.00
5578;DHT22;2811;51.900;10.734;2023-07-09T09:04:59;30.70;92.30
5578;DHT22;2811;51.900;10.734;2023-07-09T09:07:35;30.60;90.90
5578;DHT22;2811;51.900;10.734;2023-07-09T09:10:05;30.50;92.80
5578;DHT22;2811;51.900;10.734;2023-07-09T09:12:37;30.50;92.80
5578;DHT22;2811;51.900;10.734;2023-07-09T09:15:12;30.50;92.70
5578;DHT22;2811;51.900;10.734;2023-07-09T09:17:41;30.40;92.60
5578;DHT22;2811;51.900;10.734;2023-07-09T09:20:10;30.60;92.30
5578;DHT22;2811;51.900;10.734;2023-07-09T09:22:43;30.80;91.80
5578;DHT22;2811;51.900;10.734;2023-07-09T09:25:18;31.00;91.00
5578;DHT22;2811;51.900;10.734;2023-07-09T09:27:47;31.20;90.60
5578;DHT22;2811;51.900;10.734;2023-07-09T09:30:17;31.10;90.00
5578;DHT22;2811;51.900;10.734;2023-07-09T09:32:47;31.10;89.20
5578;DHT22;2811;51.900;10.734;2023-07-09T09:35:15;31.00;89.40
5578;DHT22;2811;51.900;10.734;2023-07-09T09:37:46;31.20;87.60
5578;DHT22;2811;51.900;10.734;2023-07-09T09:40:17;31.40;87.50
5578;DHT22;2811;51.900;10.734;2023-07-09T09:42:44;31.30;86.90
5578;DHT22;2811;51.900;10.734;2023-07-09T09:45:15;31.30;86.60
5578;DHT22;2811;51.900;10.734;2023-07-09T09:47:43;31.40;87.80
5578;DHT22;2811;51.900;10.734;2023-07-09T09:50:13;31.60;85.80
5578;DHT22;2811;51.900;10.734;2023-07-09T09:52:40;31.60;86.80
5578;DHT22;2811;51.900;10.734;2023-07-09T09:55:11;31.60;84.20
5578;DHT22;2811;51.900;10.734;2023-07-09T09:57:38;31.60;84.90
5578;DHT22;2811;51.900;10.734;2023-07-09T10:00:12;31.80;84.20
5578;DHT22;2811;51.900;10.734;2023-07-09T10:02:42;32.00;82.40
5578;DHT22;2811;51.900;10.734;2023-07-09T10:05:12;31.80;82.20
5578;DHT22;2811;51.900;10.734;2023-07-09T10:07:43;31.90;81.50
5578;DHT22;2811;51.900;10.734;2023-07-09T10:10:16;31.90;81.00
5578;DHT22;2811;51.900;10.734;2023-07-09T10:12:49;32.20;79.10
5578;DHT22;2811;51.900;10.734;2023-07-09T10:15:25;32.20;78.10
5578;DHT22;2811;51.900;10.734;2023-07-09T10:18:03;32.20;78.60
5578;DHT22;2811;51.900;10.734;2023-07-09T10:20:35;32.30;77.20
5578;DHT22;2811;51.900;10.734;2023-07-09T10:23:13;32.30;74.80
5578;DHT22;2811;51.900;10.734;2023-07-09T10:25:46;32.50;75.70
5578;DHT22;2811;51.900;10.734;2023-07-09T10:28:34;32.30;76.30
5578;DHT22;2811;51.900;10.734;2023-07-09T10:31:09;32.60;77.00
5578;DHT22;2811;51.900;10.734;2023-07-09T10:33:52;32.60;77.70
5578;DHT22;2811;51.900;10.734;2023-07-09T10:36:29;32.60;75.60
5578;DHT22;2811;51.900;10.734;2023-07-09T10:39:02;32.60;75.60
5578;DHT22;2811;51.900;10.734;2023-07-09T10:41:30;32.50;76.10
5578;DHT22;2811;51.900;10.734;2023-07-09T10:44:01;32.70;75.30
5578;DHT22;2811;51.900;10.734;2023-07-09T10:46:34;33.10;73.20
5578;DHT22;2811;51.900;10.734;2023-07-09T10:49:03;33.00;71.00
5578;DHT22;2811;51.900;10.734;2023-07-09T10:51:33;33.20;71.80
5578;DHT22;2811;51.900;10.734;2023-07-09T10:54:07;33.10;70.60
5578;DHT22;2811;51.900;10.734;2023-07-09T10:56:39;33.30;71.10
5578;DHT22;2811;51.900;10.734;2023-07-09T10:59:13;33.50;69.20
5578;DHT22;2811;51.900;10.734;2023-07-09T11:01:46;33.50;66.90
5578;DHT22;2811;51.900;10.734;2023-07-09T11:04:24;33.30;64.00
5578;DHT22;2811;51.900;10.734;2023-07-09T11:06:53;33.40;64.70
5578;DHT22;2811;51.900;10.734;2023-07-09T11:09:24;33.40;63.50
5578;DHT22;2811;51.900;10.734;2023-07-09T11:11:55;33.40;65.40
5578;DHT22;2811;51.900;10.734;2023-07-09T11:14:27;33.60;66.30
5578;DHT22;2811;51.900;10.734;2023-07-09T11:16:58;33.70;64.10
5578;DHT22;2811;51.900;10.734;2023-07-09T11:19:27;33.70;64.80
5578;DHT22;2811;51.900;10.734;2023-07-09T11:21:59;33.40;63.70
5578;DHT22;2811;51.900;10.734;2023-07-09T11:24:32;33.20;63.40
5578;DHT22;2811;51.900;10.734;2023-07-09T11:26:59;33.50;65.80
5578;DHT22;2811;51.900;10.734;2023-07-09T11:29:27;33.70;63.50
5578;DHT22;2811;51.900;10.734;2023-07-09T11:31:54;33.70;63.90
5578;DHT22;2811;51.900;10.734;2023-07-09T11:34:28;33.80;63.50
5578;DHT22;2811;51.900;10.734;2023-07-09T11:36:58;33.90;63.60
5578;DHT22;2811;51.900;10.734;2023-07-09T11:39:28;34.10;63.80
5578;DHT22;2811;51.900;10.734;2023-07-09T11:41:56;34.20;61.40
5578;DHT22;2811;51.900;10.734;2023-07-09T11:44:24;34.10;61.00
5578;DHT22;2811;51.900;10.734;2023-07-09T11:47:12;33.90;61.90
5578;DHT22;2811;51.900;10.734;2023-07-09T11:49:48;34.00;62.40
5578;DHT22;2811;51.900;10.734;2023-07-09T11:52:19;34.10;63.80
5578;DHT22;2811;51.900;10.734;2023-07-09T11:54:48;34.10;62.10
5578;DHT22;2811;51.900;10.734;2023-07-09T11:57:18;34.00;63.50
5578;DHT22;2811;51.900;10.734;2023-07-09T11:59:45;34.30;62.50
5578;DHT22;2811;51.900;10.734;2023-07-09T12:02:16;34.60;61.80
5578;DHT22;2811;51.900;10.734;2023-07-09T12:04:48;34.50;60.50
5578;DHT22;2811;51.900;10.734;2023-07-09T12:07:15;34.20;60.90
5578;DHT22;2811;51.900;10.734;2023-07-09T12:09:46;34.20;61.60
5578;DHT22;2811;51.900;10.734;2023-07-09T12:12:19;34.40;60.40
5578;DHT22;2811;51.900;10.734;2023-07-09T12:14:46;34.20;60.20
5578;DHT22;2811;51.900;10.734;2023-07-09T12:17:13;34.30;61.00
5578;DHT22;2811;51.900;10.734;2023-07-09T12:19:40;34.50;59.90
5578;DHT22;2811;51.900;10.734;2023-07-09T12:22:13;34.50;59.90
5578;DHT22;2811;51.900;10.734;2023-07-09T12:24:43;34.50;59.50
5578;DHT22;2811;51.900;10.734;2023-07-09T12:27:19;34.50;58.70
5578;DHT22;2811;51.900;10.734;2023-07-09T12:29:47;34.60;60.00
5578;DHT22;2811;51.900;10.734;2023-07-09T12:32:15;34.50;59.50
5578;DHT22;2811;51.900;10.734;2023-07-09T12:34:46;34.40;59.70
5578;DHT22;2811;51.900;10.734;2023-07-09T12:37:15;34.30;59.00
5578;DHT22;2811;51.900;10.734;2023-07-09T12:39:42;34.30;59.20
5578;DHT22;2811;51.900;10.734;2023-07-09T12:42:14;34.40;59.70
5578;DHT22;2811;51.900;10.734;2023-07-09T12:44:41;34.50;59.30
5578;DHT22;2811;51.900;10.734;2023-07-09T12:47:12;34.60;59.10
5578;DHT22;2811;51.900;10.734;2023-07-09T12:49:41;34.80;58.70
5578;DHT22;2811;51.900;10.734;2023-07-09T12:52:13;34.60;58.60
5578;DHT22;2811;51.900;10.734;2023-07-09T12:54:41;34.60;58.40
5578;DHT22;2811;51.900;10.734;2023-07-09T12:57:18;34.60;58.30
5578;DHT22;2811;51.900;10.734;2023-07-09T12:59:46;34.60;58.20
5578;DHT22;2811;51.900;10.734;2023-07-09T13:02:16;34.80;57.50
5578;DHT22;2811;51.900;10.734;2023-07-09T13:04:43;34.60;57.30
5578;DHT22;2811;51.900;10.734;2023-07-09T13:07:27;34.60;57.80
5578;DHT22;2811;51.900;10.734;2023-07-09T13:09:55;34.70;58.00
5578;DHT22;2811;51.900;10.734;2023-07-09T13:12:29;34.70;56.70
5578;DHT22;2811;51.900;10.734;2023-07-09T13:14:56;34.50;57.70
5578;DHT22;2811;51.900;10.734;2023-07-09T13:17:27;34.70;57.60
5578;DHT22;2811;51.900;10.734;2023-07-09T13:19:54;34.70;57.00
5578;DHT22;2811;51.900;10.734;2023-07-09T13:22:22;34.80;58.00
5578;DHT22;2811;51.900;10.734;2023-07-09T13:24:49;34.90;58.50
5578;DHT22;2811;51.900;10.734;2023-07-09T13:27:17;35.20;58.80
5578;DHT22;2811;51.900;10.734;2023-07-09T13:29:44;35.30;56.50
5578;DHT22;2811;51.900;10.734;2023-07-09T13:32:13;35.10;56.60
5578;DHT22;2811;51.900;10.734;2023-07-09T13:34:40;34.80;57.00
5578;DHT22;2811;51.900;10.734;2023-07-09T13:37:10;34.80;56.90
5578;DHT22;2811;51.900;10.734;2023-07-09T13:39:37;34.90;57.40
5578;DHT22;2811;51.900;10.734;2023-07-09T13:42:08;35.20;56.60
5578;DHT22;2811;51.900;10.734;2023-07-09T13:44:39;35.30;56.40
5578;DHT22;2811;51.900;10.734;2023-07-09T13:47:11;35.10;57.20
5578;DHT22;2811;51.900;10.734;2023-07-09T13:49:37;34.90;56.20
5578;DHT22;2811;51.900;10.734;2023-07-09T13:52:05;34.80;56.70
5578;DHT22;2811;51.900;10.734;2023-07-09T13:54:33;34.90;56.10
5578;DHT22;2811;51.900;10.734;2023-07-09T13:57:03;34.90;56.00
5578;DHT22;2811;51.900;10.734;2023-07-09T13:59:31;34.80;56.80
5578;DHT22;2811;51.900;10.734;2023-07-09T14:02:00;34.80;57.50
5578;DHT22;2811;51.900;10.734;2023-07-09T14:04:27;35.00;56.90
5578;DHT22;2811;51.900;10.734;2023-07-09T14:06:54;35.10;56.20
5578;DHT22;2811;51.900;10.734;2023-07-09T14:09:21;34.90;55.70
5578;DHT22;2811;51.900;10.734;2023-07-09T14:11:49;34.90;56.30
5578;DHT22;2811;51.900;10.734;2023-07-09T14:14:19;34.90;55.70
5578;DHT22;2811;51.900;10.734;2023-07-09T14:16:47;34.90;55.70
5578;DHT22;2811;51.900;10.734;2023-07-09T14:19:16;35.00;56.70
5578;DHT22;2811;51.900;10.734;2023-07-09T14:21:44;35.20;55.20
5578;DHT22;2811;51.900;10.734;2023-07-09T14:24:18;35.20;56.60
5578;DHT22;2811;51.900;10.734;2023-07-09T14:26:46;35.40;55.30
5578;DHT22;2811;51.900;10.734;2023-07-09T14:29:13;35.30;55.80
5578;DHT22;2811;51.900;10.734;2023-07-09T14:31:41;35.30;55.80
5578;DHT22;2811;51.900;10.734;2023-07-09T14:34:19;35.40;56.40
5578;DHT22;2811;51.900;10.734;2023-07-09T14:36:46;35.40;55.60
5578;DHT22;2811;51.900;10.734;2023-07-09T14:39:13;35.60;54.90
5578;DHT22;2811;51.900;10.734;2023-07-09T14:41:41;35.60;54.50
5578;DHT22;2811;51.900;10.734;2023-07-09T14:44:19;35.30;55.10
5578;DHT22;2811;51.900;10.734;2023-07-09T14:46:47;35.30;54.60
5578;DHT22;2811;51.900;10.734;2023-07-09T14:49:14;35.40;54.50
5578;DHT22;2811;51.900;10.734;2023-07-09T14:51:42;35.50;55.10
5578;DHT22;2811;51.900;10.734;2023-07-09T14:54:18;35.40;54.50
5578;DHT22;2811;51.900;10.734;2023-07-09T14:56:45;35.40;55.60
5578;DHT22;2811;51.900;10.734;2023-07-09T14:59:11;35.30;55.20
5578;DHT22;2811;51.900;10.734;2023-07-09T15:01:38;35.30;55.20
5578;DHT22;2811;51.900;10.734;2023-07-09T15:04:27;35.30;54.70
5578;DHT22;2811;51.900;10.734;2023-07-09T15:06:56;35.40;55.70
5578;DHT22;2811;51.900;10.734;2023-07-09T15:09:24;35.30;54.80
5578;DHT22;2811;51.900;10.734;2023-07-09T15:11:52;35.10;54.70
5578;DHT22;2811;51.900;10.734;2023-07-09T15:14:20;35.00;55.40
5578;DHT22;2811;51.900;10.734;2023-07-09T15:16:47;35.00;55.00
5578;DHT22;2811;51.900;10.734;2023-07-09T15:19:16;34.90;54.70
5578;DHT22;2811;51.900;10.734;2023-07-09T15:21:43;34.80;55.20
5578;DHT22;2811;51.900;10.734;2023-07-09T15:24:15;34.80;56.50
5578;DHT22;2811;51.900;10.734;2023-07-09T15:26:46;34.90;56.30
5578;DHT22;2811;51.900;10.734;2023-07-09T15:29:14;34.90;55.30
5578;DHT22;2811;51.900;10.734;2023-07-09T15:31:41;35.00;55.40
5578;DHT22;2811;51.900;10.734;2023-07-09T15:34:08;34.80;55.20
5578;DHT22;2811;51.900;10.734;2023-07-09T15:36:34;34.90;54.80
5578;DHT22;2811;51.900;10.734;2023-07-09T15:39:01;35.20;56.20
5578;DHT22;2811;51.900;10.734;2023-07-09T15:41:29;35.60;53.70
5578;DHT22;2811;51.900;10.734;2023-07-09T15:43:56;35.90;52.80
5578;DHT22;2811;51.900;10.734;2023-07-09T15:46:23;36.20;52.80
5578;DHT22;2811;51.900;10.734;2023-07-09T15:48:50;36.80;51.70
5578;DHT22;2811;51.900;10.734;2023-07-09T15:51:18;36.70;52.10
5578;DHT22;2811;51.900;10.734;2023-07-09T15:53:44;36.80;52.40
5578;DHT22;2811;51.900;10.734;2023-07-09T15:56:15;37.20;50.60
5578;DHT22;2811;51.900;10.734;2023-07-09T15:58:46;37.00;50.90